Time;durP1;ratioP1;P1;durP2;ratioP2;P2;SDS_P1;SDS_P2;PMS_P1;PMS_P2;Temp;Humidity;BMP_temperature;BMP_pressure;BME280_temperature;BME280_humidity;BME280_pressure;Samples;Min_cycle;Max_cycle;Signal;HPM_P1;HPM_P2
2022/08/22 00:02:11;;;;;;;;;;;15.40;99.90;;;;;;5090760;28;19908;-64
2022/08/22 00:07:38;;;;;;;;;;;15.40;99.90;;;;;;5070990;28;20302;-64
2022/08/22 00:10:24;;;;;;;;;;;15.30;99.90;;;;;;5070899;28;19919;-64
2022/08/22 00:12:53;;;;;;;;;;;15.30;99.90;;;;;;5070822;28;19921;-64
2022/08/22 00:15:21;;;;;;;;;;;15.20;99.90;;;;;;5071118;28;20329;-64
2022/08/22 00:17:54;;;;;;;;;;;15.20;99.90;;;;;;5071040;28;20279;-64
2022/08/22 00:20:32;;;;;;;;;;;15.20;99.90;;;;;;5070946;28;19913;-64
2022/08/22 00:23:18;;;;;;;;;;;15.20;99.90;;;;;;5070691;28;19935;-64
2022/08/22 00:26:02;;;;;;;;;;;15.10;99.90;;;;;;5069264;28;19958;-64
2022/08/22 00:28:33;;;;;;;;;;;15.00;99.90;;;;;;5070579;28;20272;-64
2022/08/22 00:31:01;;;;;;;;;;;15.00;99.90;;;;;;5070807;28;19990;-64
2022/08/22 00:33:31;;;;;;;;;;;14.90;99.90;;;;;;5070500;28;19912;-65
2022/08/22 00:36:04;;;;;;;;;;;15.00;99.90;;;;;;5070694;28;20281;-64
2022/08/22 00:38:33;;;;;;;;;;;14.90;99.90;;;;;;5070657;28;19909;-64
2022/08/22 00:41:08;;;;;;;;;;;14.90;99.90;;;;;;5070346;28;19970;-64
2022/08/22 00:43:50;;;;;;;;;;;14.80;99.90;;;;;;5070554;28;20281;-64
2022/08/22 00:46:25;;;;;;;;;;;14.80;99.90;;;;;;5070421;28;19913;-64
2022/08/22 00:51:54;;;;;;;;;;;14.70;99.90;;;;;;5071079;28;19913;-64
2022/08/22 00:54:30;;;;;;;;;;;14.60;99.90;;;;;;5070939;28;20367;-64
2022/08/22 00:57:15;;;;;;;;;;;14.60;99.90;;;;;;5071164;28;19959;-64
2022/08/22 00:59:52;;;;;;;;;;;14.60;99.90;;;;;;5070871;28;19915;-64
2022/08/22 01:02:28;;;;;;;;;;;14.50;99.90;;;;;;5070804;28;20367;-64
2022/08/22 01:05:02;;;;;;;;;;;14.50;99.90;;;;;;5071007;28;20325;-64
2022/08/22 01:07:41;;;;;;;;;;;14.50;99.90;;;;;;5070948;28;20416;-64
2022/08/22 01:10:26;;;;;;;;;;;14.50;99.90;;;;;;5070803;28;19956;-65
2022/08/22 01:13:02;;;;;;;;;;;14.50;99.90;;;;;;5070560;28;19909;-64
2022/08/22 01:15:32;;;;;;;;;;;14.50;99.90;;;;;;5070793;28;19909;-64
2022/08/22 01:18:07;;;;;;;;;;;14.40;99.90;;;;;;5070719;28;20393;-64
2022/08/22 01:20:42;;;;;;;;;;;14.40;99.90;;;;;;5070468;28;20428;-64
2022/08/22 01:23:27;;;;;;;;;;;14.40;99.90;;;;;;5070620;28;19962;-64
2022/08/22 01:26:13;;;;;;;;;;;14.30;99.90;;;;;;5070328;28;19916;-64
2022/08/22 01:34:28;;;;;;;;;;;14.20;99.90;;;;;;5071008;28;19920;-64
2022/08/22 01:37:14;;;;;;;;;;;14.20;99.90;;;;;;5070868;28;20405;-64
2022/08/22 01:39:59;;;;;;;;;;;14.10;99.90;;;;;;5070852;28;20302;-64
2022/08/22 01:42:44;;;;;;;;;;;14.10;99.90;;;;;;5070829;28;19999;-64
2022/08/22 01:45:22;;;;;;;;;;;14.10;99.90;;;;;;5070865;28;19913;-65
2022/08/22 01:47:53;;;;;;;;;;;14.00;99.90;;;;;;5071011;28;20286;-64
2022/08/22 01:50:26;;;;;;;;;;;14.00;99.90;;;;;;5070937;28;19909;-65
2022/08/22 01:52:51;;;;;;;;;;;;;;;;;;5070803;28;20363;-64
2022/08/22 01:55:37;;;;;;;;;;;13.80;99.90;;;;;;5070588;28;19915;-64
2022/08/22 01:58:13;;;;;;;;;;;14.20;99.90;;;;;;5070481;28;19958;-64
2022/08/22 02:00:58;;;;;;;;;;;13.90;99.90;;;;;;5070755;28;20431;-65
2022/08/22 02:03:26;;;;;;;;;;;14.00;99.90;;;;;;5070393;28;20386;-64
2022/08/22 02:05:57;;;;;;;;;;;14.00;99.90;;;;;;5070644;28;20390;-64
2022/08/22 02:08:23;;;;;;;;;;;;;;;;;;5070553;28;19908;-65
2022/08/22 02:11:05;;;;;;;;;;;13.80;99.90;;;;;;5070230;28;19909;-64
2022/08/22 02:13:51;;;;;;;;;;;14.40;99.90;;;;;;5070383;28;19943;-64
2022/08/22 02:16:36;;;;;;;;;;;14.00;99.90;;;;;;5070154;28;20076;-64
2022/08/22 02:19:03;;;;;;;;;;;;;;;;;;5070077;28;20294;-64
2022/08/22 02:21:40;;;;;;;;;;;12.40;99.90;;;;;;5070077;28;20329;-64
2022/08/22 02:24:25;;;;;;;;;;;14.10;99.90;;;;;;5070235;28;20267;-64
2022/08/22 02:27:03;;;;;;;;;;;14.00;99.90;;;;;;5069946;28;20371;-64
2022/08/22 02:29:32;;;;;;;;;;;13.80;99.90;;;;;;5070141;28;19909;-64
2022/08/22 02:32:14;;;;;;;;;;;13.40;99.90;;;;;;5072252;28;19909;-64
2022/08/22 02:34:43;;;;;;;;;;;13.80;99.90;;;;;;5090302;28;19913;-64
2022/08/22 02:37:16;;;;;;;;;;;13.60;99.90;;;;;;5090296;28;19930;-64
2022/08/22 02:40:03;;;;;;;;;;;13.60;99.90;;;;;;5089972;28;19909;-65
2022/08/22 02:42:34;;;;;;;;;;;13.60;99.90;;;;;;5089883;28;19908;-64
2022/08/22 02:45:19;;;;;;;;;;;13.60;99.90;;;;;;5079154;28;19908;-64
2022/08/22 02:47:50;;;;;;;;;;;13.60;99.90;;;;;;5076002;28;19958;-65
2022/08/22 02:50:21;;;;;;;;;;;13.60;99.90;;;;;;5076431;28;19931;-64
2022/08/22 02:53:07;;;;;;;;;;;13.60;99.90;;;;;;5076377;28;19912;-64
2022/08/22 02:55:37;;;;;;;;;;;13.50;99.90;;;;;;5076118;28;19908;-64
2022/08/22 02:58:23;;;;;;;;;;;13.50;99.90;;;;;;5076452;28;19943;-64
2022/08/22 03:00:51;;;;;;;;;;;13.50;99.90;;;;;;5075917;28;19909;-64
2022/08/22 03:03:21;;;;;;;;;;;13.50;99.90;;;;;;5076305;28;20290;-65
2022/08/22 03:05:49;;;;;;;;;;;13.40;99.90;;;;;;5075951;28;19909;-64
2022/08/22 03:11:13;;;;;;;;;;;13.40;99.90;;;;;;5071004;28;19913;-64
2022/08/22 03:13:58;;;;;;;;;;;13.40;99.90;;;;;;5071137;28;20110;-64
2022/08/22 03:16:30;;;;;;;;;;;13.40;99.90;;;;;;5070863;28;19912;-64
2022/08/22 03:19:01;;;;;;;;;;;13.30;99.90;;;;;;5071070;28;19909;-64
2022/08/22 03:21:31;;;;;;;;;;;13.30;99.90;;;;;;5070835;28;19959;-65
2022/08/22 03:24:02;;;;;;;;;;;13.20;99.90;;;;;;5071010;28;20350;-64
2022/08/22 03:26:47;;;;;;;;;;;13.20;99.90;;;;;;5070974;28;20268;-64
2022/08/22 03:29:23;;;;;;;;;;;13.20;99.90;;;;;;5070582;28;20346;-64
2022/08/22 03:32:06;;;;;;;;;;;13.20;99.90;;;;;;5070925;28;19916;-64
2022/08/22 03:34:32;;;;;;;;;;;13.30;99.90;;;;;;5070808;28;20321;-64
2022/08/22 03:37:02;;;;;;;;;;;13.30;99.90;;;;;;5070469;28;20279;-64
2022/08/22 03:39:48;;;;;;;;;;;13.20;99.90;;;;;;5070692;28;19959;-64
2022/08/22 03:45:01;;;;;;;;;;;13.20;99.90;;;;;;5091240;28;19912;-65
2022/08/22 03:47:35;;;;;;;;;;;13.20;99.90;;;;;;5091443;28;19935;-64
2022/08/22 03:50:20;;;;;;;;;;;13.20;99.90;;;;;;5091036;28;19915;-64
2022/08/22 03:53:05;;;;;;;;;;;13.30;99.90;;;;;;5091006;28;19948;-64
2022/08/22 03:55:51;;;;;;;;;;;13.30;99.90;;;;;;5091004;28;19908;-64
2022/08/22 03:58:34;;;;;;;;;;;13.30;99.90;;;;;;5091048;28;19995;-64
2022/08/22 04:04:02;;;;;;;;;;;13.30;99.90;;;;;;5091223;27;19912;-64
2022/08/22 04:06:48;;;;;;;;;;;13.10;99.90;;;;;;5091407;28;19959;-64
2022/08/22 04:09:20;;;;;;;;;;;13.10;99.90;;;;;;5090968;28;19912;-64
2022/08/22 04:11:52;;;;;;;;;;;13.10;99.90;;;;;;5091322;28;19914;-65
2022/08/22 04:14:23;;;;;;;;;;;13.10;99.90;;;;;;5091302;28;20333;-64
2022/08/22 04:16:58;;;;;;;;;;;13.10;99.90;;;;;;5091238;28;19915;-64
2022/08/22 04:19:31;;;;;;;;;;;13.10;99.90;;;;;;5091154;28;19916;-64
2022/08/22 04:22:07;;;;;;;;;;;13.10;99.90;;;;;;5123924;28;20003;-64
2022/08/22 04:24:53;;;;;;;;;;;13.10;99.90;;;;;;5090823;28;19953;-64
2022/08/22 04:27:22;;;;;;;;;;;13.10;99.90;;;;;;5090865;28;19915;-64
2022/08/22 04:29:54;;;;;;;;;;;13.20;99.90;;;;;;5090673;28;19952;-64
2022/08/22 04:35:10;;;;;;;;;;;13.30;99.90;;;;;;5091330;27;19913;-64
2022/08/22 04:37:40;;;;;;;;;;;13.30;99.90;;;;;;5091401;28;19916;-64
2022/08/22 04:40:14;;;;;;;;;;;13.40;99.90;;;;;;5091435;28;19948;-64
2022/08/22 04:42:42;;;;;;;;;;;13.40;99.90;;;;;;5124335;28;19954;-64
2022/08/22 04:45:28;;;;;;;;;;;13.40;99.90;;;;;;5091004;28;19912;-64
2022/08/22 04:48:02;;;;;;;;;;;13.50;99.90;;;;;;5118588;28;19909;-64
2022/08/22 04:50:30;;;;;;;;;;;13.50;99.90;;;;;;5091186;28;19936;-64
2022/08/22 04:53:16;;;;;;;;;;;13.60;99.90;;;;;;5090772;28;19917;-64
2022/08/22 04:55:55;;;;;;;;;;;13.60;99.90;;;;;;5090832;28;20375;-64
2022/08/22 04:58:40;;;;;;;;;;;13.70;99.90;;;;;;5123629;28;19957;-64
2022/08/22 05:01:08;;;;;;;;;;;13.80;99.90;;;;;;5090825;28;20393;-64
2022/08/22 05:03:36;;;;;;;;;;;13.90;99.90;;;;;;5089380;28;19908;-64
2022/08/22 05:06:03;;;;;;;;;;;14.00;99.90;;;;;;5090872;28;20007;-64
2022/08/22 05:08:32;;;;;;;;;;;14.10;99.90;;;;;;5090705;28;19909;-64
2022/08/22 05:10:58;;;;;;;;;;;14.20;99.90;;;;;;5090463;28;20003;-64
2022/08/22 05:13:27;;;;;;;;;;;14.30;99.90;;;;;;5090652;28;20362;-64
2022/08/22 05:15:55;;;;;;;;;;;14.40;99.90;;;;;;5090683;28;20003;-63
2022/08/22 05:18:24;;;;;;;;;;;14.40;99.90;;;;;;5090604;28;19912;-64
2022/08/22 05:20:51;;;;;;;;;;;14.50;99.90;;;;;;5090322;28;19912;-64
2022/08/22 05:23:19;;;;;;;;;;;14.50;99.90;;;;;;5090252;28;20325;-63
2022/08/22 05:25:46;;;;;;;;;;;14.60;99.90;;;;;;5090487;28;20020;-64
2022/08/22 05:28:15;;;;;;;;;;;14.60;99.90;;;;;;5091830;28;19965;-64
2022/08/22 05:30:42;;;;;;;;;;;14.80;99.90;;;;;;5100102;28;19950;-64
2022/08/22 05:33:13;;;;;;;;;;;14.80;99.90;;;;;;5113845;28;19920;-64
2022/08/22 05:35:42;;;;;;;;;;;14.90;99.90;;;;;;5120000;28;20392;-64
2022/08/22 05:38:10;;;;;;;;;;;14.90;99.90;;;;;;5111586;28;19957;-64
2022/08/22 05:40:37;;;;;;;;;;;15.00;99.90;;;;;;5131020;28;19918;-65
2022/08/22 05:43:03;;;;;;;;;;;15.20;99.90;;;;;;5130536;28;20002;-65
2022/08/22 05:45:31;;;;;;;;;;;15.30;99.90;;;;;;5101800;28;19912;-64
2022/08/22 05:48:03;;;;;;;;;;;15.50;99.90;;;;;;5108501;28;19912;-65
2022/08/22 05:50:33;;;;;;;;;;;15.70;99.90;;;;;;5116880;28;19907;-64
2022/08/22 05:53:09;;;;;;;;;;;15.80;99.90;;;;;;5097222;28;20282;-64
2022/08/22 05:55:54;;;;;;;;;;;15.80;99.90;;;;;;5096726;28;20371;-64
2022/08/22 05:58:40;;;;;;;;;;;15.90;99.90;;;;;;5075993;28;19912;-63
2022/08/22 06:01:16;;;;;;;;;;;16.10;99.90;;;;;;5083635;28;20428;-64
2022/08/22 06:03:51;;;;;;;;;;;16.30;99.90;;;;;;5086567;28;19919;-64
2022/08/22 06:06:18;;;;;;;;;;;16.40;99.90;;;;;;5089091;28;19916;-64
2022/08/22 06:08:52;;;;;;;;;;;16.60;99.90;;;;;;5086976;28;19908;-64
2022/08/22 06:11:19;;;;;;;;;;;16.90;99.90;;;;;;5106629;28;19981;-64
2022/08/22 06:13:52;;;;;;;;;;;17.00;99.90;;;;;;5100449;28;19938;-64
2022/08/22 06:16:21;;;;;;;;;;;17.30;99.90;;;;;;5094098;28;19913;-65
2022/08/22 06:18:48;;;;;;;;;;;17.80;99.90;;;;;;5079612;28;20340;-66
2022/08/22 06:21:35;;;;;;;;;;;18.40;99.90;;;;;;5093459;28;19958;-66
2022/08/22 06:24:02;;;;;;;;;;;19.30;99.90;;;;;;5104167;28;19912;-66
2022/08/22 06:26:30;;;;;;;;;;;19.90;99.90;;;;;;5100098;28;19966;-66
2022/08/22 06:28:59;;;;;;;;;;;19.90;99.90;;;;;;5097884;28;19923;-66
2022/08/22 06:31:44;;;;;;;;;;;21.20;99.90;;;;;;5099522;28;20254;-67
2022/08/22 06:34:13;;;;;;;;;;;22.20;99.90;;;;;;5104663;28;20015;-67
2022/08/22 06:36:40;;;;;;;;;;;22.80;99.90;;;;;;5088013;28;19912;-67
2022/08/22 06:39:14;;;;;;;;;;;23.70;99.90;;;;;;5096447;28;19922;-67
2022/08/22 06:41:46;;;;;;;;;;;24.70;99.90;;;;;;5101754;28;19918;-67
2022/08/22 06:44:13;;;;;;;;;;;24.30;99.90;;;;;;5101459;28;19916;-67
2022/08/22 06:46:39;;;;;;;;;;;24.10;99.90;;;;;;5077514;28;19908;-67
2022/08/22 06:49:06;;;;;;;;;;;23.30;99.90;;;;;;5113726;28;20368;-67
2022/08/22 06:51:33;;;;;;;;;;;23.70;99.90;;;;;;5106138;28;20404;-66
2022/08/22 06:54:00;;;;;;;;;;;23.30;99.90;;;;;;5108474;28;20286;-67
2022/08/22 06:56:30;;;;;;;;;;;23.00;99.90;;;;;;5098970;28;19923;-67
2022/08/22 06:58:57;;;;;;;;;;;23.30;99.90;;;;;;5102012;28;19920;-67
2022/08/22 07:01:24;;;;;;;;;;;23.30;99.90;;;;;;5097587;28;19958;-67
2022/08/22 07:03:51;;;;;;;;;;;22.70;99.90;;;;;;5107869;28;20286;-66
2022/08/22 07:06:29;;;;;;;;;;;22.30;99.90;;;;;;5091925;28;20374;-67
2022/08/22 07:08:54;;;;;;;;;;;23.00;99.90;;;;;;5099680;28;19912;-67
2022/08/22 07:11:24;;;;;;;;;;;23.50;99.90;;;;;;5096630;28;19926;-68
2022/08/22 07:13:53;;;;;;;;;;;23.70;99.90;;;;;;5093657;28;19923;-67
2022/08/22 07:16:26;;;;;;;;;;;24.20;99.90;;;;;;5100857;28;20274;-67
2022/08/22 07:18:53;;;;;;;;;;;25.50;99.90;;;;;;5099227;28;19912;-67
2022/08/22 07:21:23;;;;;;;;;;;26.50;99.90;;;;;;5104968;28;20385;-68
2022/08/22 07:23:49;;;;;;;;;;;;;;;;;;5092416;28;19912;-66
2022/08/22 07:26:21;;;;;;;;;;;28.00;98.40;;;;;;5085989;28;20367;-66
2022/08/22 07:28:50;;;;;;;;;;;29.30;94.30;;;;;;5088922;28;20259;-66
2022/08/22 07:31:36;;;;;;;;;;;29.40;94.50;;;;;;5104156;28;19911;-66
2022/08/22 07:34:22;;;;;;;;;;;29.80;91.40;;;;;;5085236;28;19928;-66
2022/08/22 07:36:57;;;;;;;;;;;28.60;92.80;;;;;;5093393;28;19912;-66
2022/08/22 07:39:28;;;;;;;;;;;27.10;96.10;;;;;;5086188;28;19912;-66
2022/08/22 07:44:44;;;;;;;;;;;27.60;95.10;;;;;;5151741;27;19921;-67
2022/08/22 07:47:15;;;;;;;;;;;27.20;95.20;;;;;;5152583;27;19919;-67
2022/08/22 07:49:48;;;;;;;;;;;27.70;95.10;;;;;;5131037;27;19908;-67
2022/08/22 07:52:13;;;;;;;;;;;27.90;95.00;;;;;;5139681;27;20397;-67
2022/08/22 07:54:44;;;;;;;;;;;28.40;94.00;;;;;;5146572;27;19915;-67
2022/08/22 07:57:12;;;;;;;;;;;29.00;93.00;;;;;;5147096;27;19911;-67
2022/08/22 07:59:41;;;;;;;;;;;29.50;93.20;;;;;;5150964;27;20358;-67
2022/08/22 08:02:09;;;;;;;;;;;30.00;92.40;;;;;;5129603;27;19964;-67
2022/08/22 08:04:37;;;;;;;;;;;29.40;91.90;;;;;;5120616;28;20369;-67
2022/08/22 08:07:05;;;;;;;;;;;29.30;92.20;;;;;;5146044;27;20318;-67
2022/08/22 08:09:31;;;;;;;;;;;30.40;90.40;;;;;;5147109;27;19934;-67
2022/08/22 08:11:58;;;;;;;;;;;30.20;89.00;;;;;;5135293;27;19918;-67
2022/08/22 08:14:24;;;;;;;;;;;31.10;87.50;;;;;;5147921;27;20278;-67
2022/08/22 08:16:59;;;;;;;;;;;30.60;85.40;;;;;;5151211;27;19915;-68
2022/08/22 08:19:25;;;;;;;;;;;30.70;89.60;;;;;;5129713;27;19911;-68
2022/08/22 08:21:53;;;;;;;;;;;30.90;86.50;;;;;;5138638;27;19908;-68
2022/08/22 08:24:21;;;;;;;;;;;29.60;89.40;;;;;;5131228;27;19915;-68
2022/08/22 08:29:37;;;;;;;;;;;30.00;90.00;;;;;;5149697;27;19911;-67
2022/08/22 08:32:04;;;;;;;;;;;29.70;87.60;;;;;;5147123;27;20377;-68
2022/08/22 08:34:31;;;;;;;;;;;29.10;90.60;;;;;;5145819;27;19915;-67
2022/08/22 08:37:03;;;;;;;;;;;28.90;90.60;;;;;;5150925;27;19918;-67
2022/08/22 08:39:32;;;;;;;;;;;29.10;88.60;;;;;;5149242;27;19919;-67
2022/08/22 08:42:18;;;;;;;;;;;28.90;86.50;;;;;;5126756;27;19912;-66
2022/08/22 08:45:00;;;;;;;;;;;28.30;89.70;;;;;;5134760;27;19959;-67
2022/08/22 08:47:45;;;;;;;;;;;28.60;88.70;;;;;;5146396;27;20006;-67
2022/08/22 08:50:31;;;;;;;;;;;28.50;88.10;;;;;;5138048;27;19914;-67
2022/08/22 08:53:09;;;;;;;;;;;28.60;90.60;;;;;;5130492;28;19922;-67
2022/08/22 08:55:42;;;;;;;;;;;28.00;91.00;;;;;;5129526;27;19912;-67
2022/08/22 08:58:24;;;;;;;;;;;28.00;89.20;;;;;;5128711;27;19915;-67
2022/08/22 09:01:10;;;;;;;;;;;28.00;89.40;;;;;;5134941;27;19942;-66
2022/08/22 09:03:52;;;;;;;;;;;28.00;91.10;;;;;;5116413;28;19919;-66
2022/08/22 09:06:37;;;;;;;;;;;28.30;90.00;;;;;;5136413;27;19962;-66
2022/08/22 09:09:16;;;;;;;;;;;28.00;90.60;;;;;;5116053;27;20362;-67
2022/08/22 09:12:02;;;;;;;;;;;28.70;88.30;;;;;;5116791;27;19927;-67
2022/08/22 09:14:47;;;;;;;;;;;30.00;86.10;;;;;;5114934;28;19915;-66
2022/08/22 09:17:20;;;;;;;;;;;30.90;81.50;;;;;;5119550;27;20408;-67
2022/08/22 09:20:06;;;;;;;;;;;31.80;77.50;;;;;;5119939;27;19916;-67
2022/08/22 09:22:51;;;;;;;;;;;33.20;74.70;;;;;;5134027;27;19911;-67
2022/08/22 09:25:21;;;;;;;;;;;33.80;71.10;;;;;;5129354;27;19945;-67
2022/08/22 09:27:53;;;;;;;;;;;32.90;72.90;;;;;;5116788;27;20370;-67
2022/08/22 09:30:21;;;;;;;;;;;33.20;70.40;;;;;;5133586;27;19963;-67
2022/08/22 09:32:57;;;;;;;;;;;33.50;70.50;;;;;;5116622;27;19949;-67
2022/08/22 09:35:26;;;;;;;;;;;33.80;67.70;;;;;;5120571;27;19959;-66
2022/08/22 09:37:55;;;;;;;;;;;33.40;68.30;;;;;;5115976;28;19919;-66
2022/08/22 09:40:25;;;;;;;;;;;33.60;64.60;;;;;;5119226;27;20002;-67
2022/08/22 09:42:56;;;;;;;;;;;32.80;65.50;;;;;;5117637;27;20286;-66
2022/08/22 09:45:44;;;;;;;;;;;32.50;66.40;;;;;;5134027;27;19918;-66
2022/08/22 09:48:30;;;;;;;;;;;32.40;65.50;;;;;;5135311;27;20006;-66
2022/08/22 09:51:15;;;;;;;;;;;31.80;64.20;;;;;;5136206;27;19917;-66
2022/08/22 09:53:48;;;;;;;;;;;32.60;64.70;;;;;;5135539;27;19965;-65
2022/08/22 09:56:20;;;;;;;;;;;32.70;61.70;;;;;;5112079;28;19912;-66
2022/08/22 09:59:04;;;;;;;;;;;32.10;64.30;;;;;;5126256;27;19912;-66
2022/08/22 10:01:48;;;;;;;;;;;32.80;60.40;;;;;;5133360;27;20280;-66
2022/08/22 10:04:34;;;;;;;;;;;32.90;60.50;;;;;;5117269;27;20314;-66
2022/08/22 10:07:03;;;;;;;;;;;32.60;59.40;;;;;;5133879;27;19911;-66
2022/08/22 10:09:37;;;;;;;;;;;32.80;60.70;;;;;;5119485;27;19972;-64
2022/08/22 10:12:05;;;;;;;;;;;33.20;58.70;;;;;;5113133;27;20004;-64
2022/08/22 10:14:39;;;;;;;;;;;33.40;57.70;;;;;;5133149;27;19912;-64
2022/08/22 10:17:24;;;;;;;;;;;32.80;56.10;;;;;;5112293;27;19949;-64
2022/08/22 10:19:52;;;;;;;;;;;33.00;58.10;;;;;;5127055;27;20441;-64
2022/08/22 10:22:22;;;;;;;;;;;32.60;56.20;;;;;;5124465;27;20003;-64
2022/08/22 10:25:07;;;;;;;;;;;32.60;57.40;;;;;;5114245;27;19916;-64
2022/08/22 10:27:41;;;;;;;;;;;32.50;57.00;;;;;;5117154;27;20079;-65
2022/08/22 10:30:09;;;;;;;;;;;32.20;59.10;;;;;;5101432;27;19912;-64
2022/08/22 10:32:40;;;;;;;;;;;31.80;58.50;;;;;;5117224;27;19916;-65
2022/08/22 10:35:12;;;;;;;;;;;32.10;58.70;;;;;;5114772;27;19919;-64
2022/08/22 10:37:45;;;;;;;;;;;32.30;59.90;;;;;;5115966;27;19916;-65
2022/08/22 10:40:31;;;;;;;;;;;33.50;56.70;;;;;;5112060;27;19911;-65
2022/08/22 10:43:02;;;;;;;;;;;33.20;56.40;;;;;;5117181;27;20019;-64
2022/08/22 10:45:31;;;;;;;;;;;33.30;56.90;;;;;;5123760;27;19923;-65
2022/08/22 10:47:59;;;;;;;;;;;33.50;55.70;;;;;;5121205;27;20333;-64
2022/08/22 10:50:29;;;;;;;;;;;33.30;58.00;;;;;;5126669;27;19916;-65
2022/08/22 10:53:28;;;;;;;;;;;33.20;57.00;;;;;;5120011;27;19957;-64
2022/08/22 10:55:44;;;;;;;;;;;32.50;56.60;;;;;;5115146;27;19922;-64
2022/08/22 10:58:12;;;;;;;;;;;31.70;57.60;;;;;;5117673;27;20023;-64
2022/08/22 11:00:56;;;;;;;;;;;31.40;58.80;;;;;;5115628;27;20010;-64
2022/08/22 11:03:38;;;;;;;;;;;31.50;59.10;;;;;;5116387;27;20345;-64
2022/08/22 11:06:23;;;;;;;;;;;31.00;62.00;;;;;;5111194;27;19954;-65
2022/08/22 11:08:56;;;;;;;;;;;31.10;60.40;;;;;;5110128;28;20019;-65
2022/08/22 11:11:42;;;;;;;;;;;31.40;59.30;;;;;;5134133;27;20361;-64
2022/08/22 11:14:18;;;;;;;;;;;31.40;59.60;;;;;;5125784;27;20022;-64
2022/08/22 11:17:04;;;;;;;;;;;30.50;59.60;;;;;;5133423;27;20383;-64
2022/08/22 11:19:49;;;;;;;;;;;30.60;62.20;;;;;;5134128;27;20319;-64
2022/08/22 11:22:35;;;;;;;;;;;30.80;62.60;;;;;;5110527;27;20271;-64
2022/08/22 11:25:20;;;;;;;;;;;30.70;62.40;;;;;;5133629;27;20309;-64
2022/08/22 11:27:57;;;;;;;;;;;30.50;62.80;;;;;;5129643;27;20293;-64
2022/08/22 11:30:30;;;;;;;;;;;30.50;61.80;;;;;;5120292;27;19911;-64
2022/08/22 11:33:00;;;;;;;;;;;30.30;60.90;;;;;;5134074;27;19911;-64
2022/08/22 11:35:30;;;;;;;;;;;29.90;62.00;;;;;;5134320;27;20059;-64
2022/08/22 11:38:01;;;;;;;;;;;29.40;63.10;;;;;;5115302;27;19912;-65
2022/08/22 11:40:41;;;;;;;;;;;29.80;62.60;;;;;;5122213;28;19964;-64
2022/08/22 11:43:26;;;;;;;;;;;29.90;62.90;;;;;;5129050;27;19923;-64
2022/08/22 11:45:55;;;;;;;;;;;30.20;64.90;;;;;;5127340;28;19912;-64
2022/08/22 11:48:24;;;;;;;;;;;30.10;65.00;;;;;;5114733;28;19916;-64
2022/08/22 11:50:59;;;;;;;;;;;30.20;64.60;;;;;;5117390;28;19920;-63
2022/08/22 11:53:35;;;;;;;;;;;30.20;63.80;;;;;;5119180;28;19922;-64
2022/08/22 11:56:21;;;;;;;;;;;29.70;64.90;;;;;;5128986;28;19943;-64
2022/08/22 11:59:06;;;;;;;;;;;30.00;65.00;;;;;;5114149;28;20378;-64
2022/08/22 12:01:36;;;;;;;;;;;30.50;62.90;;;;;;5110503;28;19969;-65
2022/08/22 12:04:11;;;;;;;;;;;30.30;62.20;;;;;;5095645;28;19920;-64
2022/08/22 12:06:42;;;;;;;;;;;30.00;64.00;;;;;;5112672;28;19908;-64
2022/08/22 12:09:16;;;;;;;;;;;30.40;63.30;;;;;;5115955;28;20380;-64
2022/08/22 12:11:52;;;;;;;;;;;30.20;61.90;;;;;;5113253;28;19939;-65
2022/08/22 12:14:22;;;;;;;;;;;30.10;63.70;;;;;;5109005;28;19919;-64
2022/08/22 12:17:08;;;;;;;;;;;30.20;62.80;;;;;;5114631;28;20006;-65
2022/08/22 12:19:39;;;;;;;;;;;30.30;63.00;;;;;;5109240;28;19919;-64
2022/08/22 12:22:08;;;;;;;;;;;30.70;63.30;;;;;;5122899;28;20002;-64
2022/08/22 12:24:53;;;;;;;;;;;30.30;63.30;;;;;;5114268;28;20379;-64
2022/08/22 12:27:39;;;;;;;;;;;30.20;61.80;;;;;;5117528;28;20354;-64
2022/08/22 12:30:24;;;;;;;;;;;30.40;62.10;;;;;;5124908;27;20457;-64
2022/08/22 12:33:09;;;;;;;;;;;30.60;62.60;;;;;;5121017;27;20285;-64
2022/08/22 12:35:55;;;;;;;;;;;30.40;61.90;;;;;;5117242;27;19912;-66
2022/08/22 12:38:32;;;;;;;;;;;30.50;61.80;;;;;;5123585;27;20011;-64
2022/08/22 12:41:08;;;;;;;;;;;30.80;63.10;;;;;;5115248;27;19912;-65
2022/08/22 12:43:48;;;;;;;;;;;31.40;60.80;;;;;;5121075;27;19919;-64
2022/08/22 12:46:16;;;;;;;;;;;30.80;60.70;;;;;;5115980;28;20393;-64
2022/08/22 12:49:01;;;;;;;;;;;30.50;60.50;;;;;;5115854;28;20369;-64
2022/08/22 12:51:47;;;;;;;;;;;30.80;60.70;;;;;;5118383;27;19911;-64
2022/08/22 12:54:26;;;;;;;;;;;30.80;63.30;;;;;;5121104;27;19964;-64
2022/08/22 12:57:11;;;;;;;;;;;30.80;61.20;;;;;;5136701;27;19911;-64
2022/08/22 12:59:41;;;;;;;;;;;30.80;61.00;;;;;;5113591;27;19912;-64
2022/08/22 13:02:11;;;;;;;;;;;30.50;60.20;;;;;;5115612;28;19908;-64
2022/08/22 13:04:41;;;;;;;;;;;30.50;62.20;;;;;;5116429;28;19959;-64
2022/08/22 13:07:16;;;;;;;;;;;30.80;61.10;;;;;;5127807;27;19915;-65
2022/08/22 13:09:46;;;;;;;;;;;30.60;62.00;;;;;;5134534;27;20362;-65
2022/08/22 13:12:22;;;;;;;;;;;30.70;63.90;;;;;;5129139;27;20021;-64
2022/08/22 13:14:51;;;;;;;;;;;30.10;61.80;;;;;;5113146;28;20374;-64
2022/08/22 13:17:18;;;;;;;;;;;30.00;62.80;;;;;;5114424;27;19919;-65
2022/08/22 13:19:50;;;;;;;;;;;30.00;62.70;;;;;;5116058;27;20004;-64
2022/08/22 13:22:18;;;;;;;;;;;30.20;63.30;;;;;;5118017;27;19912;-64
2022/08/22 13:24:46;;;;;;;;;;;30.40;62.80;;;;;;5113671;28;19919;-64
2022/08/22 13:27:15;;;;;;;;;;;30.40;62.30;;;;;;5116365;27;19915;-65
2022/08/22 13:29:45;;;;;;;;;;;30.30;62.90;;;;;;5130903;27;19919;-64
2022/08/22 13:32:17;;;;;;;;;;;30.20;62.70;;;;;;5130370;27;19962;-65
2022/08/22 13:34:46;;;;;;;;;;;30.40;63.90;;;;;;5131724;27;20388;-65
2022/08/22 13:37:14;;;;;;;;;;;30.20;61.00;;;;;;5129287;27;19911;-64
2022/08/22 13:39:41;;;;;;;;;;;30.10;61.60;;;;;;5133800;27;19918;-64
2022/08/22 13:42:13;;;;;;;;;;;30.00;64.30;;;;;;5130462;27;20357;-64
2022/08/22 13:44:42;;;;;;;;;;;29.90;64.10;;;;;;5118743;27;19927;-64
2022/08/22 13:47:09;;;;;;;;;;;29.70;62.30;;;;;;5115413;27;19947;-64
2022/08/22 13:49:36;;;;;;;;;;;29.60;64.10;;;;;;5112652;27;19912;-64
2022/08/22 13:52:08;;;;;;;;;;;29.50;62.60;;;;;;5140264;27;19916;-64
2022/08/22 13:54:52;;;;;;;;;;;29.30;62.70;;;;;;5125829;27;19916;-64
2022/08/22 13:57:27;;;;;;;;;;;29.10;65.70;;;;;;5120590;27;20324;-65
2022/08/22 14:00:00;;;;;;;;;;;29.00;66.40;;;;;;5119031;27;20350;-64
2022/08/22 14:02:46;;;;;;;;;;;29.10;66.10;;;;;;5135060;27;19920;-65
2022/08/22 14:05:16;;;;;;;;;;;29.10;65.90;;;;;;5125397;27;19916;-65
2022/08/22 14:07:50;;;;;;;;;;;28.90;66.40;;;;;;5129070;27;19920;-64
2022/08/22 14:10:21;;;;;;;;;;;28.80;66.90;;;;;;5112168;27;19919;-64
2022/08/22 14:13:04;;;;;;;;;;;28.80;67.70;;;;;;5114858;27;19959;-64
2022/08/22 14:15:32;;;;;;;;;;;28.60;67.20;;;;;;5113043;27;19969;-64
2022/08/22 14:18:00;;;;;;;;;;;28.50;67.90;;;;;;5114561;27;20365;-64
2022/08/22 14:20:27;;;;;;;;;;;28.40;68.30;;;;;;5113569;27;19935;-64
2022/08/22 14:22:56;;;;;;;;;;;28.40;68.50;;;;;;5115237;27;19919;-65
2022/08/22 14:25:23;;;;;;;;;;;28.30;69.20;;;;;;5104400;27;19984;-64
2022/08/22 14:27:54;;;;;;;;;;;28.10;69.30;;;;;;5136926;27;20397;-64
2022/08/22 14:30:22;;;;;;;;;;;28.10;69.60;;;;;;5110438;27;20002;-66
2022/08/22 14:32:50;;;;;;;;;;;28.20;70.40;;;;;;5135164;27;20521;-65
2022/08/22 14:35:18;;;;;;;;;;;28.20;70.50;;;;;;5133929;27;19994;-64
2022/08/22 14:37:46;;;;;;;;;;;28.10;70.30;;;;;;5128974;27;19934;-64
2022/08/22 14:40:18;;;;;;;;;;;28.10;70.40;;;;;;5134653;27;20388;-64
2022/08/22 14:42:48;;;;;;;;;;;28.00;71.00;;;;;;5134813;27;20389;-64
2022/08/22 14:45:17;;;;;;;;;;;28.00;71.20;;;;;;5130079;27;19979;-64
2022/08/22 14:47:52;;;;;;;;;;;27.90;70.80;;;;;;5129734;27;19907;-64
2022/08/22 14:50:38;;;;;;;;;;;27.90;70.40;;;;;;5114823;27;19912;-64
2022/08/22 14:53:06;;;;;;;;;;;27.80;70.80;;;;;;5126764;27;19907;-64
2022/08/22 14:55:32;;;;;;;;;;;27.80;71.30;;;;;;5135252;27;19923;-64
2022/08/22 14:58:01;;;;;;;;;;;27.80;70.90;;;;;;5135392;27;19908;-64
2022/08/22 15:03:07;;;;;;;;;;;27.30;71.50;;;;;;5071033;28;19919;-65
2022/08/22 15:05:39;;;;;;;;;;;27.20;72.10;;;;;;5085502;28;19912;-65
2022/08/22 15:08:06;;;;;;;;;;;27.20;73.20;;;;;;5066493;28;19917;-67
2022/08/22 15:10:32;;;;;;;;;;;27.20;72.70;;;;;;5070718;28;20325;-65
2022/08/22 15:12:59;;;;;;;;;;;27.00;73.20;;;;;;5070102;28;19913;-66
2022/08/22 15:15:45;;;;;;;;;;;26.90;73.20;;;;;;5069999;28;20268;-66
2022/08/22 15:18:32;;;;;;;;;;;26.80;74.20;;;;;;5057610;28;19909;-65
2022/08/22 15:21:00;;;;;;;;;;;26.80;74.30;;;;;;5070352;28;19912;-65
2022/08/22 15:23:26;;;;;;;;;;;26.70;74.90;;;;;;5069949;28;19974;-65
2022/08/22 15:25:56;;;;;;;;;;;26.70;75.90;;;;;;5070274;28;19912;-65
2022/08/22 15:28:22;;;;;;;;;;;26.60;76.70;;;;;;5070029;28;19913;-66
2022/08/22 15:30:59;;;;;;;;;;;26.50;77.40;;;;;;5068738;28;20324;-66